createdAt,value
2022-09-03T09:53:17.936Z,21.10
2022-09-03T09:56:06.053Z,21.40
2022-09-03T09:58:36.545Z,21.70
2022-09-03T10:04:35.621Z,21.90
2022-09-03T10:07:34.092Z,22.10
2022-09-03T10:10:08.750Z,22.50
2022-09-03T10:12:44.705Z,22.70
2022-09-03T10:15:31.337Z,22.20
2022-09-03T10:18:08.625Z,21.90
2022-09-03T10:20:44.916Z,21.90
2022-09-03T10:23:28.348Z,22.60
2022-09-03T10:26:15.197Z,23.10
2022-09-03T10:28:43.158Z,23.30
2022-09-03T10:31:22.297Z,23.10
2022-09-03T10:34:24.638Z,23.30
2022-09-03T10:37:10.339Z,23.60
2022-09-03T10:40:14.641Z,23.60
2022-09-03T10:43:09.085Z,22.80
2022-09-03T10:45:54.930Z,22.20
2022-09-03T10:48:46.008Z,22.20
2022-09-03T10:51:22.404Z,22.20
2022-09-03T10:54:04.228Z,22.10
2022-09-03T11:00:45.729Z,22.10
2022-09-03T11:03:31.754Z,21.90
2022-09-03T11:06:17.735Z,22.00
2022-09-03T11:09:17.833Z,21.90
2022-09-03T11:14:45.041Z,22.70
2022-09-03T11:17:28.052Z,23.00
2022-09-03T11:20:24.307Z,22.90
2022-09-03T11:22:56.415Z,22.30
2022-09-03T11:25:28.740Z,22.50
2022-09-03T11:28:28.560Z,22.80
2022-09-03T11:31:34.791Z,22.60
2022-09-03T11:34:10.679Z,22.40
2022-09-03T11:36:42.638Z,22.60
2022-09-03T11:39:39.878Z,23.20
2022-09-03T11:42:28.744Z,23.60
2022-09-03T11:45:01.621Z,23.90
2022-09-03T11:47:40.483Z,23.20
2022-09-03T11:50:21.578Z,23.20
2022-09-03T11:56:16.268Z,23.00
2022-09-03T11:58:45.982Z,23.10
2022-09-03T12:01:18.723Z,23.20
2022-09-03T12:04:01.550Z,23.30
2022-09-03T12:06:39.116Z,22.80
2022-09-03T12:09:23.715Z,22.80
2022-09-03T12:12:02.988Z,23.40
2022-09-03T12:15:01.539Z,23.90
2022-09-03T12:18:15.428Z,23.80
2022-09-03T12:20:42.868Z,23.40
2022-09-03T12:23:18.003Z,23.10
2022-09-03T12:25:47.520Z,23.10
2022-09-03T12:28:21.951Z,23.20
2022-09-03T12:30:53.708Z,23.70
2022-09-03T12:33:22.786Z,23.90
2022-09-03T12:36:16.304Z,23.70
2022-09-03T12:39:07.952Z,23.20
2022-09-03T12:41:31.812Z,23.50
2022-09-03T12:44:00.688Z,23.80
2022-09-03T12:46:34.134Z,23.50
2022-09-03T12:52:05.431Z,23.30
2022-09-03T12:54:38.295Z,23.10
2022-09-03T12:57:05.654Z,22.60
2022-09-03T12:59:36.894Z,22.70
2022-09-03T13:02:17.868Z,23.10
2022-09-03T13:04:46.548Z,23.40
2022-09-03T13:07:34.137Z,23.20
2022-09-03T13:10:06.933Z,22.90
